sensor_id;sensor_type;location;lat;lon;timestamp;P1;durP1;ratioP1;P2;durP2;ratioP2
38847;SDS011;24602;44.780;20.408;2022-09-27T00:00:49;7.90;;;6.25;;
38847;SDS011;24602;44.780;20.408;2022-09-27T00:03:21;13.52;;;9.32;;
38847;SDS011;24602;44.780;20.408;2022-09-27T00:06:00;7.10;;;5.20;;
38847;SDS011;24602;44.780;20.408;2022-09-27T00:08:35;4.95;;;4.45;;
38847;SDS011;24602;44.780;20.408;2022-09-27T00:11:07;8.02;;;6.47;;
38847;SDS011;24602;44.780;20.408;2022-09-27T00:13:49;8.10;;;6.45;;
38847;SDS011;24602;44.780;20.408;2022-09-27T00:18:58;18.80;;;13.00;;
38847;SDS011;24602;44.780;20.408;2022-09-27T00:21:33;12.10;;;8.32;;
38847;SDS011;24602;44.780;20.408;2022-09-27T00:24:04;7.72;;;5.70;;
38847;SDS011;24602;44.780;20.408;2022-09-27T00:26:39;9.18;;;6.45;;
38847;SDS011;24602;44.780;20.408;2022-09-27T00:29:13;10.65;;;7.57;;
38847;SDS011;24602;44.780;20.408;2022-09-27T00:31:50;10.10;;;7.72;;
38847;SDS011;24602;44.780;20.408;2022-09-27T00:34:23;11.07;;;8.30;;
38847;SDS011;24602;44.780;20.408;2022-09-27T00:36:52;13.90;;;10.45;;
38847;SDS011;24602;44.780;20.408;2022-09-27T00:39:24;9.30;;;7.05;;
38847;SDS011;24602;44.780;20.408;2022-09-27T00:41:55;8.30;;;6.28;;
38847;SDS011;24602;44.780;20.408;2022-09-27T00:47:11;9.18;;;5.75;;
38847;SDS011;24602;44.780;20.408;2022-09-27T00:55:37;6.57;;;5.90;;
38847;SDS011;24602;44.780;20.408;2022-09-27T00:58:17;8.77;;;5.45;;
38847;SDS011;24602;44.780;20.408;2022-09-27T01:00:53;5.95;;;4.80;;
38847;SDS011;24602;44.780;20.408;2022-09-27T01:03:38;4.57;;;3.78;;
38847;SDS011;24602;44.780;20.408;2022-09-27T01:06:26;5.82;;;5.22;;
38847;SDS011;24602;44.780;20.408;2022-09-27T01:08:56;6.25;;;5.15;;
38847;SDS011;24602;44.780;20.408;2022-09-27T01:14:49;5.38;;;4.88;;
38847;SDS011;24602;44.780;20.408;2022-09-27T01:21:04;6.25;;;5.63;;
38847;SDS011;24602;44.780;20.408;2022-09-27T01:24:05;6.43;;;4.93;;
38847;SDS011;24602;44.780;20.408;2022-09-27T01:39:20;5.40;;;4.40;;
38847;SDS011;24602;44.780;20.408;2022-09-27T01:48:17;5.63;;;4.82;;
38847;SDS011;24602;44.780;20.408;2022-09-27T01:50:58;5.32;;;4.82;;
38847;SDS011;24602;44.780;20.408;2022-09-27T01:53:36;5.15;;;4.20;;
38847;SDS011;24602;44.780;20.408;2022-09-27T01:56:40;5.88;;;4.15;;
38847;SDS011;24602;44.780;20.408;2022-09-27T02:02:52;6.75;;;4.97;;
38847;SDS011;24602;44.780;20.408;2022-09-27T02:06:19;6.53;;;5.22;;
38847;SDS011;24602;44.780;20.408;2022-09-27T02:09:11;5.20;;;4.70;;
38847;SDS011;24602;44.780;20.408;2022-09-27T02:12:06;4.90;;;4.38;;
38847;SDS011;24602;44.780;20.408;2022-09-27T02:14:49;5.28;;;4.70;;
38847;SDS011;24602;44.780;20.408;2022-09-27T02:23:20;6.25;;;4.25;;
38847;SDS011;24602;44.780;20.408;2022-09-27T02:26:19;8.60;;;4.60;;
38847;SDS011;24602;44.780;20.408;2022-09-27T02:29:27;7.15;;;4.93;;
38847;SDS011;24602;44.780;20.408;2022-09-27T02:32:13;6.38;;;5.00;;
38847;SDS011;24602;44.780;20.408;2022-09-27T02:34:44;7.72;;;5.25;;
38847;SDS011;24602;44.780;20.408;2022-09-27T02:37:19;6.82;;;4.70;;
38847;SDS011;24602;44.780;20.408;2022-09-27T02:39:50;5.68;;;4.95;;
38847;SDS011;24602;44.780;20.408;2022-09-27T02:42:25;5.38;;;4.10;;
38847;SDS011;24602;44.780;20.408;2022-09-27T02:45:02;6.82;;;4.95;;
38847;SDS011;24602;44.780;20.408;2022-09-27T02:57:13;7.15;;;4.70;;
38847;SDS011;24602;44.780;20.408;2022-09-27T03:00:06;4.97;;;4.40;;
38847;SDS011;24602;44.780;20.408;2022-09-27T03:03:02;7.78;;;5.80;;
38847;SDS011;24602;44.780;20.408;2022-09-27T03:06:10;11.90;;;8.82;;
38847;SDS011;24602;44.780;20.408;2022-09-27T03:08:43;11.07;;;7.00;;
38847;SDS011;24602;44.780;20.408;2022-09-27T03:11:14;8.07;;;6.75;;
38847;SDS011;24602;44.780;20.408;2022-09-27T03:13:49;10.35;;;9.25;;
38847;SDS011;24602;44.780;20.408;2022-09-27T03:16:44;13.18;;;11.40;;
38847;SDS011;24602;44.780;20.408;2022-09-27T03:19:36;17.70;;;12.15;;
38847;SDS011;24602;44.780;20.408;2022-09-27T03:22:26;14.38;;;12.18;;
38847;SDS011;24602;44.780;20.408;2022-09-27T03:24:57;18.25;;;14.13;;
38847;SDS011;24602;44.780;20.408;2022-09-27T03:27:30;20.30;;;15.15;;
38847;SDS011;24602;44.780;20.408;2022-09-27T03:30:04;18.23;;;14.38;;
38847;SDS011;24602;44.780;20.408;2022-09-27T03:32:41;20.48;;;14.98;;
38847;SDS011;24602;44.780;20.408;2022-09-27T03:35:30;19.00;;;13.10;;
38847;SDS011;24602;44.780;20.408;2022-09-27T03:38:00;20.10;;;13.55;;
38847;SDS011;24602;44.780;20.408;2022-09-27T03:40:34;19.40;;;13.75;;
38847;SDS011;24602;44.780;20.408;2022-09-27T03:43:05;19.58;;;13.73;;
38847;SDS011;24602;44.780;20.408;2022-09-27T03:45:35;17.60;;;13.35;;
38847;SDS011;24602;44.780;20.408;2022-09-27T03:48:11;21.35;;;14.93;;
38847;SDS011;24602;44.780;20.408;2022-09-27T03:50:46;18.75;;;14.60;;
38847;SDS011;24602;44.780;20.408;2022-09-27T03:53:19;18.85;;;14.48;;
38847;SDS011;24602;44.780;20.408;2022-09-27T03:55:53;23.00;;;17.40;;
38847;SDS011;24602;44.780;20.408;2022-09-27T03:58:35;22.35;;;16.60;;
38847;SDS011;24602;44.780;20.408;2022-09-27T04:01:16;23.65;;;16.83;;
38847;SDS011;24602;44.780;20.408;2022-09-27T04:03:56;22.23;;;17.08;;
38847;SDS011;24602;44.780;20.408;2022-09-27T04:06:50;23.67;;;17.70;;
38847;SDS011;24602;44.780;20.408;2022-09-27T04:09:29;24.63;;;19.55;;
38847;SDS011;24602;44.780;20.408;2022-09-27T04:12:00;24.05;;;17.75;;
38847;SDS011;24602;44.780;20.408;2022-09-27T04:14:34;27.27;;;20.05;;
38847;SDS011;24602;44.780;20.408;2022-09-27T04:17:30;27.38;;;19.92;;
38847;SDS011;24602;44.780;20.408;2022-09-27T04:20:22;28.00;;;20.60;;
38847;SDS011;24602;44.780;20.408;2022-09-27T04:22:56;27.90;;;19.48;;
38847;SDS011;24602;44.780;20.408;2022-09-27T04:25:47;27.48;;;18.98;;
38847;SDS011;24602;44.780;20.408;2022-09-27T04:28:40;28.98;;;20.95;;
38847;SDS011;24602;44.780;20.408;2022-09-27T04:31:11;29.83;;;20.65;;
38847;SDS011;24602;44.780;20.408;2022-09-27T04:33:48;29.38;;;20.10;;
38847;SDS011;24602;44.780;20.408;2022-09-27T04:36:21;28.40;;;20.23;;
38847;SDS011;24602;44.780;20.408;2022-09-27T04:39:09;32.53;;;21.77;;
38847;SDS011;24602;44.780;20.408;2022-09-27T04:41:43;31.90;;;21.45;;
38847;SDS011;24602;44.780;20.408;2022-09-27T04:46:52;30.52;;;21.13;;
38847;SDS011;24602;44.780;20.408;2022-09-27T04:49:29;30.23;;;21.15;;
38847;SDS011;24602;44.780;20.408;2022-09-27T04:52:01;27.83;;;19.23;;
38847;SDS011;24602;44.780;20.408;2022-09-27T04:54:54;29.02;;;19.60;;
38847;SDS011;24602;44.780;20.408;2022-09-27T04:57:24;28.95;;;19.42;;
38847;SDS011;24602;44.780;20.408;2022-09-27T04:59:55;26.08;;;19.00;;
38847;SDS011;24602;44.780;20.408;2022-09-27T05:02:30;24.08;;;17.00;;
38847;SDS011;24602;44.780;20.408;2022-09-27T05:05:19;24.80;;;16.63;;
38847;SDS011;24602;44.780;20.408;2022-09-27T05:07:51;27.00;;;19.10;;
38847;SDS011;24602;44.780;20.408;2022-09-27T05:10:51;24.67;;;18.23;;
38847;SDS011;24602;44.780;20.408;2022-09-27T05:13:21;22.92;;;17.92;;
38847;SDS011;24602;44.780;20.408;2022-09-27T05:15:50;24.48;;;17.33;;
38847;SDS011;24602;44.780;20.408;2022-09-27T05:18:52;24.67;;;17.33;;
38847;SDS011;24602;44.780;20.408;2022-09-27T05:21:58;22.33;;;15.98;;
38847;SDS011;24602;44.780;20.408;2022-09-27T05:24:33;20.77;;;16.30;;
38847;SDS011;24602;44.780;20.408;2022-09-27T05:27:03;18.63;;;14.38;;
38847;SDS011;24602;44.780;20.408;2022-09-27T05:29:37;13.43;;;9.90;;
38847;SDS011;24602;44.780;20.408;2022-09-27T05:32:16;20.58;;;13.13;;
38847;SDS011;24602;44.780;20.408;2022-09-27T05:35:13;17.48;;;13.27;;
38847;SDS011;24602;44.780;20.408;2022-09-27T05:37:43;18.92;;;13.20;;
38847;SDS011;24602;44.780;20.408;2022-09-27T05:40:31;17.13;;;12.93;;
38847;SDS011;24602;44.780;20.408;2022-09-27T05:43:11;17.40;;;12.80;;
38847;SDS011;24602;44.780;20.408;2022-09-27T05:45:44;15.57;;;11.35;;
38847;SDS011;24602;44.780;20.408;2022-09-27T05:48:18;16.67;;;13.15;;
38847;SDS011;24602;44.780;20.408;2022-09-27T05:51:04;16.08;;;12.55;;
38847;SDS011;24602;44.780;20.408;2022-09-27T05:53:40;18.27;;;12.48;;
38847;SDS011;24602;44.780;20.408;2022-09-27T05:56:22;17.80;;;12.55;;
38847;SDS011;24602;44.780;20.408;2022-09-27T05:59:13;19.05;;;13.50;;
38847;SDS011;24602;44.780;20.408;2022-09-27T06:02:11;13.88;;;11.93;;
38847;SDS011;24602;44.780;20.408;2022-09-27T06:05:02;14.07;;;10.35;;
38847;SDS011;24602;44.780;20.408;2022-09-27T06:08:10;10.45;;;8.90;;
38847;SDS011;24602;44.780;20.408;2022-09-27T06:10:45;9.90;;;8.35;;
38847;SDS011;24602;44.780;20.408;2022-09-27T06:13:21;10.65;;;8.13;;
38847;SDS011;24602;44.780;20.408;2022-09-27T06:15:53;11.10;;;8.00;;
38847;SDS011;24602;44.780;20.408;2022-09-27T06:18:28;10.52;;;8.85;;
38847;SDS011;24602;44.780;20.408;2022-09-27T06:21:02;11.20;;;9.05;;
38847;SDS011;24602;44.780;20.408;2022-09-27T06:23:34;11.57;;;8.82;;
38847;SDS011;24602;44.780;20.408;2022-09-27T06:26:19;10.07;;;8.18;;
38847;SDS011;24602;44.780;20.408;2022-09-27T06:29:13;7.95;;;6.65;;
38847;SDS011;24602;44.780;20.408;2022-09-27T06:32:01;7.28;;;6.28;;
38847;SDS011;24602;44.780;20.408;2022-09-27T06:34:54;9.95;;;5.53;;
38847;SDS011;24602;44.780;20.408;2022-09-27T06:37:30;10.05;;;6.43;;
38847;SDS011;24602;44.780;20.408;2022-09-27T06:40:00;9.65;;;5.40;;
38847;SDS011;24602;44.780;20.408;2022-09-27T06:43:01;7.90;;;5.32;;
38847;SDS011;24602;44.780;20.408;2022-09-27T06:45:52;7.18;;;4.50;;
38847;SDS011;24602;44.780;20.408;2022-09-27T06:48:41;5.97;;;5.03;;
38847;SDS011;24602;44.780;20.408;2022-09-27T06:51:24;7.00;;;4.30;;
38847;SDS011;24602;44.780;20.408;2022-09-27T06:53:56;11.18;;;7.32;;
38847;SDS011;24602;44.780;20.408;2022-09-27T06:56:25;11.50;;;7.90;;
38847;SDS011;24602;44.780;20.408;2022-09-27T06:58:55;10.48;;;8.20;;
38847;SDS011;24602;44.780;20.408;2022-09-27T07:01:45;7.40;;;5.57;;
38847;SDS011;24602;44.780;20.408;2022-09-27T07:04:41;6.68;;;4.88;;
38847;SDS011;24602;44.780;20.408;2022-09-27T07:07:42;5.65;;;4.60;;
38847;SDS011;24602;44.780;20.408;2022-09-27T07:10:14;6.78;;;5.43;;
38847;SDS011;24602;44.780;20.408;2022-09-27T07:12:54;7.00;;;5.55;;
38847;SDS011;24602;44.780;20.408;2022-09-27T07:15:27;6.32;;;4.25;;
38847;SDS011;24602;44.780;20.408;2022-09-27T07:18:00;5.55;;;4.03;;
38847;SDS011;24602;44.780;20.408;2022-09-27T07:20:32;6.35;;;4.53;;
38847;SDS011;24602;44.780;20.408;2022-09-27T07:23:05;7.97;;;6.47;;
38847;SDS011;24602;44.780;20.408;2022-09-27T07:25:35;7.03;;;5.47;;
38847;SDS011;24602;44.780;20.408;2022-09-27T07:28:09;9.80;;;5.75;;
38847;SDS011;24602;44.780;20.408;2022-09-27T07:30:53;16.75;;;10.88;;
38847;SDS011;24602;44.780;20.408;2022-09-27T07:33:39;9.27;;;7.70;;
38847;SDS011;24602;44.780;20.408;2022-09-27T07:36:15;9.95;;;7.63;;
38847;SDS011;24602;44.780;20.408;2022-09-27T07:38:50;10.63;;;7.28;;
38847;SDS011;24602;44.780;20.408;2022-09-27T07:41:26;8.20;;;6.28;;
38847;SDS011;24602;44.780;20.408;2022-09-27T07:44:07;11.95;;;5.60;;
38847;SDS011;24602;44.780;20.408;2022-09-27T07:46:53;5.97;;;4.60;;
38847;SDS011;24602;44.780;20.408;2022-09-27T07:49:28;12.70;;;5.47;;
38847;SDS011;24602;44.780;20.408;2022-09-27T07:52:06;9.75;;;4.18;;
38847;SDS011;24602;44.780;20.408;2022-09-27T07:54:50;5.22;;;3.30;;
38847;SDS011;24602;44.780;20.408;2022-09-27T07:57:36;5.28;;;3.30;;
38847;SDS011;24602;44.780;20.408;2022-09-27T08:00:10;5.10;;;3.30;;
38847;SDS011;24602;44.780;20.408;2022-09-27T08:02:49;9.00;;;5.82;;
38847;SDS011;24602;44.780;20.408;2022-09-27T08:05:18;6.43;;;4.55;;
38847;SDS011;24602;44.780;20.408;2022-09-27T08:07:55;8.77;;;3.60;;
38847;SDS011;24602;44.780;20.408;2022-09-27T08:10:31;7.78;;;3.22;;
38847;SDS011;24602;44.780;20.408;2022-09-27T08:13:06;9.30;;;4.38;;
38847;SDS011;24602;44.780;20.408;2022-09-27T08:15:38;8.50;;;4.05;;
38847;SDS011;24602;44.780;20.408;2022-09-27T08:18:19;5.70;;;4.45;;
38847;SDS011;24602;44.780;20.408;2022-09-27T08:20:59;5.07;;;3.45;;
38847;SDS011;24602;44.780;20.408;2022-09-27T08:23:58;4.18;;;3.30;;
38847;SDS011;24602;44.780;20.408;2022-09-27T08:26:53;5.22;;;2.90;;
38847;SDS011;24602;44.780;20.408;2022-09-27T08:29:38;3.80;;;2.60;;
38847;SDS011;24602;44.780;20.408;2022-09-27T08:32:12;3.35;;;2.33;;
38847;SDS011;24602;44.780;20.408;2022-09-27T08:34:46;2.97;;;1.98;;
38847;SDS011;24602;44.780;20.408;2022-09-27T08:37:16;2.55;;;1.88;;
38847;SDS011;24602;44.780;20.408;2022-09-27T08:39:48;5.68;;;2.08;;
38847;SDS011;24602;44.780;20.408;2022-09-27T08:45:13;3.75;;;2.03;;
38847;SDS011;24602;44.780;20.408;2022-09-27T08:47:53;4.28;;;2.53;;
38847;SDS011;24602;44.780;20.408;2022-09-27T08:50:40;6.78;;;5.53;;
38847;SDS011;24602;44.780;20.408;2022-09-27T08:53:21;6.10;;;3.83;;
38847;SDS011;24602;44.780;20.408;2022-09-27T08:55:57;5.43;;;2.92;;
38847;SDS011;24602;44.780;20.408;2022-09-27T09:01:42;5.95;;;3.75;;
38847;SDS011;24602;44.780;20.408;2022-09-27T09:04:30;4.65;;;3.83;;
38847;SDS011;24602;44.780;20.408;2022-09-27T09:26:00;5.88;;;4.18;;
38847;SDS011;24602;44.780;20.408;2022-09-27T09:28:50;4.93;;;3.95;;
38847;SDS011;24602;44.780;20.408;2022-09-27T09:32:13;5.35;;;3.90;;
38847;SDS011;24602;44.780;20.408;2022-09-27T09:35:11;6.72;;;3.92;;
38847;SDS011;24602;44.780;20.408;2022-09-27T09:37:48;8.25;;;3.60;;
38847;SDS011;24602;44.780;20.408;2022-09-27T09:46:30;7.55;;;3.78;;
38847;SDS011;24602;44.780;20.408;2022-09-27T09:48:52;7.13;;;4.15;;
38847;SDS011;24602;44.780;20.408;2022-09-27T09:54:29;5.55;;;3.88;;
38847;SDS011;24602;44.780;20.408;2022-09-27T09:57:13;4.38;;;3.40;;
38847;SDS011;24602;44.780;20.408;2022-09-27T10:00:15;3.83;;;2.55;;
38847;SDS011;24602;44.780;20.408;2022-09-27T10:02:53;3.63;;;2.80;;
38847;SDS011;24602;44.780;20.408;2022-09-27T10:05:26;4.32;;;2.63;;
38847;SDS011;24602;44.780;20.408;2022-09-27T10:08:01;5.78;;;2.78;;
38847;SDS011;24602;44.780;20.408;2022-09-27T10:10:39;6.00;;;2.65;;
38847;SDS011;24602;44.780;20.408;2022-09-27T10:13:49;4.72;;;2.25;;
38847;SDS011;24602;44.780;20.408;2022-09-27T10:16:21;3.17;;;2.20;;
38847;SDS011;24602;44.780;20.408;2022-09-27T10:18:54;3.45;;;2.70;;
38847;SDS011;24602;44.780;20.408;2022-09-27T10:21:30;3.78;;;2.70;;
38847;SDS011;24602;44.780;20.408;2022-09-27T10:24:10;5.90;;;3.20;;
38847;SDS011;24602;44.780;20.408;2022-09-27T10:27:07;5.82;;;3.08;;
38847;SDS011;24602;44.780;20.408;2022-09-27T10:29:38;5.72;;;2.88;;
38847;SDS011;24602;44.780;20.408;2022-09-27T10:32:24;6.70;;;3.40;;
38847;SDS011;24602;44.780;20.408;2022-09-27T10:41:34;7.05;;;3.38;;
38847;SDS011;24602;44.780;20.408;2022-09-27T10:44:30;8.65;;;3.47;;
38847;SDS011;24602;44.780;20.408;2022-09-27T10:47:19;5.25;;;3.65;;
38847;SDS011;24602;44.780;20.408;2022-09-27T10:50:10;6.53;;;3.45;;
38847;SDS011;24602;44.780;20.408;2022-09-27T10:53:20;7.72;;;3.67;;
38847;SDS011;24602;44.780;20.408;2022-09-27T10:56:04;7.10;;;5.40;;
38847;SDS011;24602;44.780;20.408;2022-09-27T10:58:40;9.52;;;5.32;;
38847;SDS011;24602;44.780;20.408;2022-09-27T11:01:17;4.70;;;3.55;;
38847;SDS011;24602;44.780;20.408;2022-09-27T11:04:33;4.65;;;2.58;;
38847;SDS011;24602;44.780;20.408;2022-09-27T11:07:17;5.43;;;3.63;;
38847;SDS011;24602;44.780;20.408;2022-09-27T11:10:00;5.50;;;4.38;;
38847;SDS011;24602;44.780;20.408;2022-09-27T11:12:37;7.65;;;3.08;;
38847;SDS011;24602;44.780;20.408;2022-09-27T11:15:14;3.53;;;2.75;;
38847;SDS011;24602;44.780;20.408;2022-09-27T11:17:54;4.18;;;2.15;;
38847;SDS011;24602;44.780;20.408;2022-09-27T11:21:06;3.55;;;2.15;;
38847;SDS011;24602;44.780;20.408;2022-09-27T11:34:05;3.95;;;2.15;;
38847;SDS011;24602;44.780;20.408;2022-09-27T11:45:52;3.38;;;1.60;;
38847;SDS011;24602;44.780;20.408;2022-09-27T11:57:45;6.63;;;2.42;;
38847;SDS011;24602;44.780;20.408;2022-09-27T12:00:47;5.05;;;2.25;;
38847;SDS011;24602;44.780;20.408;2022-09-27T12:03:45;4.53;;;2.42;;
38847;SDS011;24602;44.780;20.408;2022-09-27T12:09:13;4.63;;;2.55;;
38847;SDS011;24602;44.780;20.408;2022-09-27T12:11:52;8.73;;;3.40;;
38847;SDS011;24602;44.780;20.408;2022-09-27T12:17:11;4.38;;;3.08;;
38847;SDS011;24602;44.780;20.408;2022-09-27T12:19:53;6.07;;;3.50;;
38847;SDS011;24602;44.780;20.408;2022-09-27T12:23:02;6.15;;;4.18;;
38847;SDS011;24602;44.780;20.408;2022-09-27T12:29:22;11.23;;;6.07;;
38847;SDS011;24602;44.780;20.408;2022-09-27T12:40:46;13.23;;;10.98;;
38847;SDS011;24602;44.780;20.408;2022-09-27T12:43:30;12.55;;;10.35;;
38847;SDS011;24602;44.780;20.408;2022-09-27T12:51:58;26.83;;;23.05;;
38847;SDS011;24602;44.780;20.408;2022-09-27T12:54:44;37.80;;;31.90;;
38847;SDS011;24602;44.780;20.408;2022-09-27T13:03:28;7.93;;;2.53;;
38847;SDS011;24602;44.780;20.408;2022-09-27T13:09:46;1.77;;;0.88;;
38847;SDS011;24602;44.780;20.408;2022-09-27T13:12:39;1.63;;;1.13;;
38847;SDS011;24602;44.780;20.408;2022-09-27T13:15:30;6.43;;;2.38;;
38847;SDS011;24602;44.780;20.408;2022-09-27T13:24:47;6.85;;;2.67;;
38847;SDS011;24602;44.780;20.408;2022-09-27T13:27:58;3.70;;;2.50;;
38847;SDS011;24602;44.780;20.408;2022-09-27T13:39:02;5.35;;;2.95;;
38847;SDS011;24602;44.780;20.408;2022-09-27T13:42:27;4.18;;;1.92;;
38847;SDS011;24602;44.780;20.408;2022-09-27T13:45:21;3.17;;;1.83;;
38847;SDS011;24602;44.780;20.408;2022-09-27T13:47:59;3.33;;;1.70;;
38847;SDS011;24602;44.780;20.408;2022-09-27T13:50:46;1.85;;;1.40;;
38847;SDS011;24602;44.780;20.408;2022-09-27T13:56:45;2.25;;;1.40;;
38847;SDS011;24602;44.780;20.408;2022-09-27T13:59:51;5.97;;;2.05;;
38847;SDS011;24602;44.780;20.408;2022-09-27T14:03:21;2.95;;;1.80;;
38847;SDS011;24602;44.780;20.408;2022-09-27T14:06:19;4.43;;;2.55;;
38847;SDS011;24602;44.780;20.408;2022-09-27T14:08:57;8.10;;;2.65;;
38847;SDS011;24602;44.780;20.408;2022-09-27T14:12:16;4.00;;;2.47;;
38847;SDS011;24602;44.780;20.408;2022-09-27T14:14:50;5.63;;;2.67;;
38847;SDS011;24602;44.780;20.408;2022-09-27T14:17:28;2.70;;;2.00;;
38847;SDS011;24602;44.780;20.408;2022-09-27T14:20:00;3.03;;;2.00;;
38847;SDS011;24602;44.780;20.408;2022-09-27T14:22:33;3.15;;;1.67;;
38847;SDS011;24602;44.780;20.408;2022-09-27T14:25:16;4.10;;;1.92;;
38847;SDS011;24602;44.780;20.408;2022-09-27T14:27:50;5.80;;;2.22;;
38847;SDS011;24602;44.780;20.408;2022-09-27T14:34:10;4.90;;;2.88;;
38847;SDS011;24602;44.780;20.408;2022-09-27T14:36:44;4.70;;;2.35;;
38847;SDS011;24602;44.780;20.408;2022-09-27T14:39:57;8.18;;;3.92;;
38847;SDS011;24602;44.780;20.408;2022-09-27T14:42:43;8.35;;;4.22;;
38847;SDS011;24602;44.780;20.408;2022-09-27T14:45:34;3.38;;;2.22;;
38847;SDS011;24602;44.780;20.408;2022-09-27T14:50:56;4.57;;;2.63;;
38847;SDS011;24602;44.780;20.408;2022-09-27T14:53:45;5.43;;;2.70;;
38847;SDS011;24602;44.780;20.408;2022-09-27T14:56:32;4.35;;;2.60;;
38847;SDS011;24602;44.780;20.408;2022-09-27T14:59:09;4.53;;;3.00;;
38847;SDS011;24602;44.780;20.408;2022-09-27T15:01:50;3.90;;;3.45;;
38847;SDS011;24602;44.780;20.408;2022-09-27T15:04:22;4.95;;;3.53;;
38847;SDS011;24602;44.780;20.408;2022-09-27T15:06:54;7.50;;;3.45;;
38847;SDS011;24602;44.780;20.408;2022-09-27T15:09:29;4.75;;;3.92;;
38847;SDS011;24602;44.780;20.408;2022-09-27T15:12:00;10.45;;;5.18;;
38847;SDS011;24602;44.780;20.408;2022-09-27T15:14:30;8.60;;;4.88;;
38847;SDS011;24602;44.780;20.408;2022-09-27T15:17:00;6.03;;;4.60;;
38847;SDS011;24602;44.780;20.408;2022-09-27T15:19:34;5.95;;;4.45;;
38847;SDS011;24602;44.780;20.408;2022-09-27T15:22:22;5.47;;;3.75;;
38847;SDS011;24602;44.780;20.408;2022-09-27T15:25:15;6.82;;;3.72;;
38847;SDS011;24602;44.780;20.408;2022-09-27T15:28:03;4.60;;;3.83;;
38847;SDS011;24602;44.780;20.408;2022-09-27T15:30:40;5.70;;;3.40;;
38847;SDS011;24602;44.780;20.408;2022-09-27T15:33:26;5.63;;;3.90;;
38847;SDS011;24602;44.780;20.408;2022-09-27T15:36:04;5.93;;;3.60;;
38847;SDS011;24602;44.780;20.408;2022-09-27T15:38:39;5.40;;;2.95;;
38847;SDS011;24602;44.780;20.408;2022-09-27T15:41:19;5.63;;;3.03;;
38847;SDS011;24602;44.780;20.408;2022-09-27T15:43:51;3.70;;;2.63;;
38847;SDS011;24602;44.780;20.408;2022-09-27T15:46:41;4.53;;;2.97;;
38847;SDS011;24602;44.780;20.408;2022-09-27T15:49:30;3.90;;;2.70;;
38847;SDS011;24602;44.780;20.408;2022-09-27T15:52:05;5.05;;;2.90;;
38847;SDS011;24602;44.780;20.408;2022-09-27T15:54:47;8.68;;;2.67;;
38847;SDS011;24602;44.780;20.408;2022-09-27T15:57:24;5.88;;;2.95;;
38847;SDS011;24602;44.780;20.408;2022-09-27T15:59:55;3.08;;;2.67;;
38847;SDS011;24602;44.780;20.408;2022-09-27T16:02:29;5.05;;;3.17;;
38847;SDS011;24602;44.780;20.408;2022-09-27T16:05:02;5.30;;;3.05;;
38847;SDS011;24602;44.780;20.408;2022-09-27T16:07:33;5.32;;;2.90;;
38847;SDS011;24602;44.780;20.408;2022-09-27T16:10:19;9.30;;;3.10;;
38847;SDS011;24602;44.780;20.408;2022-09-27T16:12:55;6.68;;;3.30;;
38847;SDS011;24602;44.780;20.408;2022-09-27T16:15:25;5.70;;;2.92;;
38847;SDS011;24602;44.780;20.408;2022-09-27T16:17:54;4.47;;;3.00;;
38847;SDS011;24602;44.780;20.408;2022-09-27T16:20:26;6.35;;;3.75;;
38847;SDS011;24602;44.780;20.408;2022-09-27T16:22:56;18.13;;;8.23;;
38847;SDS011;24602;44.780;20.408;2022-09-27T16:25:30;15.88;;;7.97;;
38847;SDS011;24602;44.780;20.408;2022-09-27T16:28:03;15.48;;;7.15;;
38847;SDS011;24602;44.780;20.408;2022-09-27T16:30:33;11.68;;;6.35;;
38847;SDS011;24602;44.780;20.408;2022-09-27T16:33:04;15.68;;;7.70;;
38847;SDS011;24602;44.780;20.408;2022-09-27T16:35:37;16.17;;;9.57;;
38847;SDS011;24602;44.780;20.408;2022-09-27T16:38:10;14.40;;;7.80;;
38847;SDS011;24602;44.780;20.408;2022-09-27T16:40:45;10.27;;;6.13;;
38847;SDS011;24602;44.780;20.408;2022-09-27T16:43:16;6.88;;;4.35;;
38847;SDS011;24602;44.780;20.408;2022-09-27T16:45:49;8.63;;;4.18;;
38847;SDS011;24602;44.780;20.408;2022-09-27T16:48:25;6.55;;;3.30;;
38847;SDS011;24602;44.780;20.408;2022-09-27T16:51:02;9.32;;;5.20;;
38847;SDS011;24602;44.780;20.408;2022-09-27T16:53:55;9.00;;;4.25;;
38847;SDS011;24602;44.780;20.408;2022-09-27T16:56:26;8.13;;;4.55;;
38847;SDS011;24602;44.780;20.408;2022-09-27T16:59:01;9.63;;;4.50;;
38847;SDS011;24602;44.780;20.408;2022-09-27T17:01:46;10.68;;;6.35;;
38847;SDS011;24602;44.780;20.408;2022-09-27T17:04:18;12.20;;;6.93;;
38847;SDS011;24602;44.780;20.408;2022-09-27T17:06:48;12.45;;;6.88;;
38847;SDS011;24602;44.780;20.408;2022-09-27T17:09:22;8.68;;;5.47;;
38847;SDS011;24602;44.780;20.408;2022-09-27T17:11:52;14.00;;;7.60;;
38847;SDS011;24602;44.780;20.408;2022-09-27T17:14:24;14.23;;;9.13;;
38847;SDS011;24602;44.780;20.408;2022-09-27T17:16:56;19.52;;;11.25;;
38847;SDS011;24602;44.780;20.408;2022-09-27T17:19:29;10.50;;;6.25;;
38847;SDS011;24602;44.780;20.408;2022-09-27T17:22:02;10.35;;;7.00;;
38847;SDS011;24602;44.780;20.408;2022-09-27T17:24:34;14.32;;;7.30;;
38847;SDS011;24602;44.780;20.408;2022-09-27T17:27:05;15.88;;;8.30;;
38847;SDS011;24602;44.780;20.408;2022-09-27T17:29:37;12.00;;;7.93;;
38847;SDS011;24602;44.780;20.408;2022-09-27T17:32:16;11.10;;;6.80;;
38847;SDS011;24602;44.780;20.408;2022-09-27T17:34:52;9.60;;;4.90;;
38847;SDS011;24602;44.780;20.408;2022-09-27T17:37:33;10.93;;;5.53;;
38847;SDS011;24602;44.780;20.408;2022-09-27T17:40:04;14.65;;;8.45;;
38847;SDS011;24602;44.780;20.408;2022-09-27T17:42:37;27.08;;;11.30;;
38847;SDS011;24602;44.780;20.408;2022-09-27T17:45:09;14.23;;;7.43;;
38847;SDS011;24602;44.780;20.408;2022-09-27T17:47:42;11.35;;;4.82;;
38847;SDS011;24602;44.780;20.408;2022-09-27T17:50:30;13.00;;;8.00;;
38847;SDS011;24602;44.780;20.408;2022-09-27T17:53:12;11.75;;;7.15;;
38847;SDS011;24602;44.780;20.408;2022-09-27T17:55:43;11.15;;;6.00;;
38847;SDS011;24602;44.780;20.408;2022-09-27T17:58:17;27.15;;;15.30;;
38847;SDS011;24602;44.780;20.408;2022-09-27T18:00:48;31.17;;;17.33;;
38847;SDS011;24602;44.780;20.408;2022-09-27T18:03:20;14.07;;;8.52;;
38847;SDS011;24602;44.780;20.408;2022-09-27T18:05:52;17.15;;;10.35;;
38847;SDS011;24602;44.780;20.408;2022-09-27T18:08:20;25.55;;;15.07;;
38847;SDS011;24602;44.780;20.408;2022-09-27T18:10:52;13.95;;;7.93;;
38847;SDS011;24602;44.780;20.408;2022-09-27T18:13:25;11.35;;;6.63;;
38847;SDS011;24602;44.780;20.408;2022-09-27T18:15:57;16.50;;;10.57;;
38847;SDS011;24602;44.780;20.408;2022-09-27T18:18:32;13.27;;;7.10;;
38847;SDS011;24602;44.780;20.408;2022-09-27T18:21:01;12.18;;;6.32;;
38847;SDS011;24602;44.780;20.408;2022-09-27T18:23:39;9.50;;;6.65;;
38847;SDS011;24602;44.780;20.408;2022-09-27T18:26:12;17.63;;;10.00;;
38847;SDS011;24602;44.780;20.408;2022-09-27T18:28:43;26.92;;;12.23;;
38847;SDS011;24602;44.780;20.408;2022-09-27T18:31:19;19.60;;;13.18;;
38847;SDS011;24602;44.780;20.408;2022-09-27T18:33:52;32.03;;;14.85;;
38847;SDS011;24602;44.780;20.408;2022-09-27T18:36:23;20.77;;;14.80;;
38847;SDS011;24602;44.780;20.408;2022-09-27T18:38:55;19.88;;;13.02;;
38847;SDS011;24602;44.780;20.408;2022-09-27T18:41:29;20.85;;;13.13;;
38847;SDS011;24602;44.780;20.408;2022-09-27T18:44:01;23.20;;;13.38;;
38847;SDS011;24602;44.780;20.408;2022-09-27T18:46:39;18.92;;;11.43;;
38847;SDS011;24602;44.780;20.408;2022-09-27T18:49:12;15.80;;;8.30;;